Time;durP1;ratioP1;P1;durP2;ratioP2;P2;SDS_P1;SDS_P2;PMS_P1;PMS_P2;Temp;Humidity;BMP_temperature;BMP_pressure;BME280_temperature;BME280_humidity;BME280_pressure;Samples;Min_cycle;Max_cycle;Signal;HPM_P1;HPM_P2
2021/09/04 08:27:07;;;;;;;7.32;5.70;;;22.40;90.60;;;;;;5075524;28;45274;-45
2021/09/04 08:29:33;;;;;;;8.15;5.50;;;22.60;90.00;;;;;;5075039;27;45200;-46
2021/09/04 08:31:59;;;;;;;6.55;5.70;;;23.00;87.30;;;;;;5074759;27;45221;-48
2021/09/04 08:34:25;;;;;;;7.10;4.93;;;23.30;85.40;;;;;;5075140;27;45538;-53
2021/09/04 08:36:51;;;;;;;6.78;5.47;;;23.60;84.40;;;;;;5074585;27;45361;-45
2021/09/04 08:39:17;;;;;;;7.15;4.70;;;23.80;82.90;;;;;;5074605;27;45283;-44
2021/09/04 08:41:44;;;;;;;13.75;5.72;;;24.00;82.40;;;;;;5074386;27;45311;-45
2021/09/04 08:44:10;;;;;;;10.38;5.53;;;24.20;81.70;;;;;;5074393;27;45416;-44
2021/09/04 08:46:36;;;;;;;7.38;6.00;;;24.40;80.90;;;;;;5071463;28;45383;-43
2021/09/04 08:49:04;;;;;;;5.80;5.30;;;24.50;80.20;;;;;;5059250;28;45442;-46
2021/09/04 08:51:30;;;;;;;21.13;6.00;;;24.60;80.20;;;;;;5074412;27;45283;-45
2021/09/04 08:53:56;;;;;;;9.23;5.57;;;24.70;80.00;;;;;;5074389;27;45324;-46
2021/09/04 08:56:22;;;;;;;8.52;5.15;;;24.80;80.10;;;;;;5074303;27;45966;-46
2021/09/04 08:58:48;;;;;;;5.80;5.20;;;24.80;79.70;;;;;;5074369;28;45395;-46
2021/09/04 09:01:16;;;;;;;5.93;4.63;;;25.00;79.40;;;;;;5074354;27;45246;-45
2021/09/04 09:03:43;;;;;;;5.55;5.05;;;25.00;78.90;;;;;;5072849;28;45242;-46
2021/09/04 09:06:09;;;;;;;6.88;4.90;;;25.10;78.50;;;;;;5074164;27;46294;-46
2021/09/04 09:08:35;;;;;;;11.52;5.03;;;25.20;79.20;;;;;;5074253;27;45206;-47
2021/09/04 09:11:02;;;;;;;6.18;4.57;;;25.20;78.60;;;;;;5074620;27;45341;-48
2021/09/04 09:13:28;;;;;;;12.23;4.78;;;24.50;81.00;;;;;;5072880;28;45547;-49
2021/09/04 09:15:56;;;;;;;7.75;4.85;;;24.60;81.30;;;;;;5074125;27;45442;-45
2021/09/04 09:18:26;;;;;;;5.68;4.43;;;24.60;81.30;;;;;;5072473;28;45429;-47
2021/09/04 09:21:12;;;;;;;6.85;4.22;;;24.60;81.60;;;;;;5073578;27;45282;-47
2021/09/04 09:23:38;;;;;;;8.60;4.43;;;24.70;81.10;;;;;;5073692;28;45323;-48
2021/09/04 09:26:06;;;;;;;6.57;5.03;;;24.80;81.00;;;;;;5073111;27;45234;-47
2021/09/04 09:28:32;;;;;;;8.75;5.20;;;24.80;80.40;;;;;;5072092;28;45277;-49
2021/09/04 09:31:00;;;;;;;5.30;4.40;;;24.90;80.30;;;;;;5072477;28;45413;-48
2021/09/04 09:33:27;;;;;;;6.53;4.20;;;24.90;80.10;;;;;;5073439;28;45349;-51
2021/09/04 09:35:55;;;;;;;4.55;4.15;;;24.80;80.20;;;;;;5062633;27;46172;-51
2021/09/04 09:38:22;;;;;;;7.70;4.63;;;24.80;79.00;;;;;;5051499;28;45346;-54
2021/09/04 09:40:50;;;;;;;4.38;3.97;;;24.80;78.60;;;;;;5040104;28;45361;-52
2021/09/04 09:43:15;;;;;;;6.40;4.78;;;24.80;78.30;;;;;;5040034;28;45603;-52
2021/09/04 09:45:46;;;;;;;5.68;4.25;;;24.80;78.30;;;;;;5039632;28;46195;-53
2021/09/04 09:48:11;;;;;;;5.20;4.00;;;24.80;78.20;;;;;;5039992;28;45419;-51
2021/09/04 09:50:37;;;;;;;4.40;4.00;;;24.90;78.20;;;;;;5038644;28;45320;-50
2021/09/04 09:53:04;;;;;;;4.20;3.40;;;24.90;77.70;;;;;;5040269;28;45232;-51
2021/09/04 09:55:30;;;;;;;9.88;3.95;;;24.90;77.40;;;;;;5038929;28;47233;-48
2021/09/04 09:57:58;;;;;;;4.70;3.78;;;25.00;76.80;;;;;;5040007;28;45397;-49
2021/09/04 10:00:27;;;;;;;6.80;3.92;;;25.00;76.50;;;;;;5039668;28;45305;-48
2021/09/04 10:02:57;;;;;;;10.32;3.63;;;25.00;76.20;;;;;;5040001;28;45595;-50
2021/09/04 10:05:25;;;;;;;22.35;4.30;;;25.00;75.90;;;;;;5039757;28;45961;-47
2021/09/04 10:07:53;;;;;;;9.13;4.07;;;25.00;75.60;;;;;;5038725;28;45308;-47
2021/09/04 10:10:22;;;;;;;6.93;3.53;;;25.10;75.30;;;;;;5039930;28;45421;-49
2021/09/04 10:12:48;;;;;;;3.78;3.47;;;25.00;75.30;;;;;;5038539;28;45659;-47
2021/09/04 10:15:14;;;;;;;3.97;3.53;;;25.10;75.20;;;;;;5038357;28;45505;-47
2021/09/04 10:17:41;;;;;;;3.90;3.50;;;25.10;75.10;;;;;;5022502;28;45348;-48
2021/09/04 10:20:07;;;;;;;4.97;3.47;;;25.20;75.10;;;;;;5038563;28;45236;-50
2021/09/04 10:22:33;;;;;;;4.32;3.35;;;25.30;75.10;;;;;;5039723;28;45148;-47
2021/09/04 10:25:02;;;;;;;18.13;13.32;;;25.30;75.10;;;;;;5039386;28;45222;-48
2021/09/04 10:27:33;;;;;;;4.65;3.83;;;25.30;75.10;;;;;;5038286;28;45350;-50
2021/09/04 10:30:25;;;;;;;4.03;3.53;;;25.40;75.30;;;;;;5039933;28;45268;-46
2021/09/04 10:33:19;;;;;;;4.13;3.70;;;25.40;75.20;;;;;;5039464;28;45234;-48
2021/09/04 10:35:48;;;;;;;5.00;3.53;;;25.40;74.60;;;;;;5038883;28;46167;-49
2021/09/04 10:38:21;;;;;;;3.88;3.50;;;25.50;74.80;;;;;;5039329;28;45160;-46
2021/09/04 10:40:48;;;;;;;6.18;3.58;;;25.60;74.60;;;;;;5039459;28;45302;-46
2021/09/04 10:43:14;;;;;;;3.75;3.33;;;25.70;74.80;;;;;;5039169;28;45303;-49
2021/09/04 10:45:40;;;;;;;5.90;3.40;;;25.90;74.90;;;;;;5039210;28;45326;-49
2021/09/04 10:48:26;;;;;;;4.63;3.40;;;26.10;74.40;;;;;;5038529;28;45374;-50
2021/09/04 10:51:12;;;;;;;6.40;3.70;;;26.20;73.90;;;;;;5039146;28;45352;-50
2021/09/04 10:53:42;;;;;;;5.57;3.53;;;26.30;73.60;;;;;;5039011;28;45306;-49
2021/09/04 10:56:29;;;;;;;3.55;3.10;;;26.40;73.50;;;;;;5038869;28;45348;-45
2021/09/04 10:58:55;;;;;;;5.45;3.50;;;26.50;72.50;;;;;;5037665;28;45128;-45
2021/09/04 11:01:32;;;;;;;6.28;3.28;;;26.50;73.00;;;;;;5038707;28;45459;-47
2021/09/04 11:03:58;;;;;;;4.30;3.90;;;26.60;72.90;;;;;;5038723;28;45325;-45
2021/09/04 11:06:25;;;;;;;3.80;3.45;;;26.60;72.60;;;;;;5038993;28;47062;-52
2021/09/04 11:08:54;;;;;;;4.32;2.90;;;26.60;72.60;;;;;;5038732;28;45265;-46
2021/09/04 11:11:41;;;;;;;5.18;3.25;;;26.60;72.20;;;;;;5039067;28;45349;-43
2021/09/04 11:14:28;;;;;;;6.32;3.45;;;26.70;72.50;;;;;;5038980;28;45366;-42
2021/09/04 11:16:54;;;;;;;3.67;3.38;;;26.80;73.10;;;;;;5037429;28;47092;-42
2021/09/04 11:19:22;;;;;;;3.40;2.85;;;26.90;73.50;;;;;;5038752;28;45495;-40
2021/09/04 11:21:51;;;;;;;5.65;3.35;;;26.90;72.40;;;;;;5038948;28;45406;-44
2021/09/04 11:24:27;;;;;;;3.60;3.25;;;27.00;72.10;;;;;;5039081;28;45449;-39
2021/09/04 11:26:55;;;;;;;5.53;3.60;;;27.10;71.40;;;;;;5038083;28;46123;-42
2021/09/04 11:29:21;;;;;;;5.32;3.22;;;27.20;71.40;;;;;;5038742;28;45178;-54
2021/09/04 11:31:54;;;;;;;7.57;3.58;;;27.20;71.10;;;;;;5037416;28;45272;-41
2021/09/04 11:34:39;;;;;;;;;;;27.20;71.00;;;;;;5039333;28;45406;-50
2021/09/04 11:37:35;;;;;;;3.80;3.42;;;27.20;71.20;;;;;;5038574;28;46077;-52
2021/09/04 11:40:29;;;;;;;7.82;3.83;;;27.20;70.60;;;;;;5038357;28;45302;-51
2021/09/04 11:42:54;;;;;;;3.67;3.28;;;27.20;70.90;;;;;;5038311;28;45312;-48
2021/09/04 11:45:22;;;;;;;3.97;3.30;;;27.20;71.10;;;;;;5038422;28;45386;-46
2021/09/04 11:47:50;;;;;;;5.38;3.28;;;27.20;70.40;;;;;;5038235;28;45940;-45
2021/09/04 11:50:19;;;;;;;4.97;3.10;;;27.20;70.20;;;;;;5037024;28;45411;-45
2021/09/04 11:52:45;;;;;;;6.22;3.17;;;27.20;70.30;;;;;;5038656;28;45367;-42
2021/09/04 11:55:14;;;;;;;4.93;2.83;;;27.10;70.80;;;;;;5038363;28;45468;-41
2021/09/04 11:57:42;;;;;;;4.75;3.28;;;27.10;69.70;;;;;;5037062;28;46123;-41
2021/09/04 12:00:13;;;;;;;4.72;3.25;;;27.10;69.50;;;;;;5037912;28;45311;-41
2021/09/04 12:02:45;;;;;;;4.30;3.20;;;27.00;69.60;;;;;;5038372;28;45235;-40
2021/09/04 12:05:11;;;;;;;4.72;3.10;;;27.00;69.80;;;;;;5036497;28;45420;-40
2021/09/04 12:07:37;;;;;;;8.27;3.40;;;27.00;69.50;;;;;;5038095;28;45264;-40
2021/09/04 12:10:04;;;;;;;5.32;3.17;;;26.90;69.30;;;;;;5038439;28;45232;-40
2021/09/04 12:12:30;;;;;;;7.88;3.35;;;26.90;69.00;;;;;;5036882;28;45271;-43
2021/09/04 12:14:56;;;;;;;13.80;4.05;;;26.90;69.00;;;;;;5038040;28;45421;-40
2021/09/04 12:17:22;;;;;;;13.15;4.22;;;26.90;69.40;;;;;;5038103;28;45902;-41
2021/09/04 12:19:49;;;;;;;12.80;3.90;;;26.90;70.20;;;;;;5036358;28;45605;-40
2021/09/04 12:22:15;;;;;;;6.07;3.42;;;27.00;70.60;;;;;;5038016;28;45373;-41
2021/09/04 12:24:41;;;;;;;6.65;3.47;;;27.00;70.00;;;;;;5036643;28;45480;-40
2021/09/04 12:27:07;;;;;;;3.80;3.38;;;27.00;69.60;;;;;;5036700;28;45562;-42
2021/09/04 12:29:33;;;;;;;6.60;3.65;;;27.00;69.60;;;;;;5037897;28;45405;-39
2021/09/04 12:32:19;;;;;;;4.57;4.15;;;27.10;69.60;;;;;;5036596;28;45382;-40
2021/09/04 12:34:56;;;;;;;3.63;3.30;;;27.20;69.20;;;;;;5037811;28;45156;-40
2021/09/04 12:37:24;;;;;;;6.18;3.58;;;27.40;68.80;;;;;;5037641;28;46077;-40
2021/09/04 12:39:50;;;;;;;5.45;3.38;;;27.40;68.90;;;;;;5037476;28;45848;-41
2021/09/04 12:42:16;;;;;;;9.88;3.80;;;27.50;69.40;;;;;;5037756;28;45141;-40
2021/09/04 12:44:43;;;;;;;5.95;3.67;;;27.60;69.20;;;;;;5037646;28;45312;-38
2021/09/04 12:47:10;;;;;;;8.20;3.75;;;27.80;68.50;;;;;;5019629;28;46080;-38
2021/09/04 12:49:37;;;;;;;8.95;3.70;;;27.90;68.00;;;;;;5036160;28;45391;-38
2021/09/04 12:52:04;;;;;;;3.92;3.10;;;27.90;67.70;;;;;;5037385;28;45457;-42
2021/09/04 12:54:50;;;;;;;7.78;4.05;;;28.00;67.00;;;;;;5037290;28;45275;-38
2021/09/04 12:57:36;;;;;;;43.67;5.25;;;28.00;66.60;;;;;;5037501;28;45410;-38
2021/09/04 13:00:06;;;;;;;25.55;4.35;;;28.00;66.60;;;;;;5040007;28;45216;-40
2021/09/04 13:02:35;;;;;;;4.45;3.85;;;28.10;65.90;;;;;;5047662;28;45440;-38
2021/09/04 13:05:04;;;;;;;6.82;3.83;;;28.20;66.10;;;;;;5040256;28;45530;-44
2021/09/04 13:07:51;;;;;;;10.77;3.70;;;28.40;65.90;;;;;;5019512;28;48014;-46
2021/09/04 13:10:18;;;;;;;11.27;3.45;;;28.70;65.10;;;;;;5029615;28;45322;-39
2021/09/04 13:12:45;;;;;;;12.55;4.07;;;28.80;65.30;;;;;;5065704;28;45306;-38
2021/09/04 13:15:11;;;;;;;4.22;3.55;;;28.90;65.10;;;;;;5047088;28;45500;-38
2021/09/04 13:17:38;;;;;;;4.90;3.30;;;28.80;64.30;;;;;;5039113;28;47114;-39
2021/09/04 13:20:04;;;;;;;12.85;5.53;;;28.80;64.60;;;;;;5039137;28;45571;-42
2021/09/04 13:22:32;;;;;;;6.70;4.38;;;29.00;64.40;;;;;;5022655;28;45375;-40
2021/09/04 13:24:58;;;;;;;7.15;3.63;;;29.20;64.10;;;;;;5039200;28;45357;-40
2021/09/04 13:27:24;;;;;;;6.55;3.95;;;29.60;64.10;;;;;;5039135;28;45771;-47
2021/09/04 13:29:50;;;;;;;8.88;3.75;;;29.90;63.10;;;;;;5022512;28;45343;-51
2021/09/04 13:32:15;;;;;;;4.30;3.33;;;30.10;62.90;;;;;;5039339;28;45323;-47
2021/09/04 13:34:41;;;;;;;9.05;3.67;;;30.20;62.80;;;;;;5022697;28;45503;-49
2021/09/04 13:37:07;;;;;;;7.15;3.47;;;30.20;62.20;;;;;;5022395;28;47103;-47
2021/09/04 13:39:33;;;;;;;5.78;3.60;;;30.20;62.40;;;;;;5022492;28;45224;-53
2021/09/04 13:41:59;;;;;;;6.57;3.45;;;30.10;62.20;;;;;;5039151;28;45257;-49
2021/09/04 13:44:25;;;;;;;5.00;4.05;;;30.00;62.20;;;;;;5040277;28;45494;-46
2021/09/04 13:46:50;;;;;;;3.78;3.22;;;29.80;62.40;;;;;;5038795;28;45189;-47
2021/09/04 13:49:16;;;;;;;7.70;4.07;;;29.60;62.70;;;;;;5038714;28;46018;-46
2021/09/04 13:51:42;;;;;;;15.40;3.63;;;29.50;62.40;;;;;;5022535;28;45379;-54
2021/09/04 13:54:08;;;;;;;3.45;3.13;;;29.40;62.00;;;;;;5040089;28;45370;-46
2021/09/04 13:56:34;;;;;;;9.38;3.88;;;29.30;61.70;;;;;;5038621;28;47937;-55
2021/09/04 13:59:00;;;;;;;4.63;3.53;;;29.20;62.20;;;;;;5022001;28;45338;-45
2021/09/04 14:01:26;;;;;;;10.52;4.40;;;29.20;61.30;;;;;;5022121;28;45248;-47
2021/09/04 14:03:52;;;;;;;5.38;3.47;;;29.10;61.30;;;;;;5038606;28;45537;-42
2021/09/04 14:06:18;;;;;;;6.50;3.53;;;29.10;61.30;;;;;;5038471;28;45234;-50
2021/09/04 14:08:44;;;;;;;6.68;3.10;;;29.00;61.50;;;;;;5038268;28;45379;-45
2021/09/04 14:11:10;;;;;;;5.88;3.30;;;29.00;61.70;;;;;;5022220;28;45298;-50
2021/09/04 14:13:36;;;;;;;9.15;4.53;;;28.90;61.90;;;;;;5038656;28;45369;-44
2021/09/04 14:16:02;;;;;;;8.27;3.75;;;28.90;62.40;;;;;;5038193;28;47402;-43
2021/09/04 14:18:28;;;;;;;6.70;3.50;;;28.90;62.40;;;;;;5021815;28;45390;-44
2021/09/04 14:20:54;;;;;;;6.60;3.45;;;29.00;62.80;;;;;;5039762;28;45444;-46
2021/09/04 14:23:20;;;;;;;3.65;3.30;;;29.00;62.70;;;;;;5038201;28;45352;-44
2021/09/04 14:25:46;;;;;;;3.63;3.17;;;29.10;62.70;;;;;;5037967;28;47181;-49
2021/09/04 14:28:12;;;;;;;5.82;3.47;;;29.10;63.00;;;;;;5021633;28;45234;-50
2021/09/04 14:30:38;;;;;;;5.53;3.30;;;28.90;62.80;;;;;;5038207;28;45307;-43
2021/09/04 14:33:04;;;;;;;14.20;4.22;;;28.90;63.20;;;;;;5038371;28;45485;-47
2021/09/04 14:35:30;;;;;;;6.35;3.30;;;28.90;63.10;;;;;;5038121;28;47920;-46
2021/09/04 14:37:59;;;;;;;7.65;3.45;;;28.90;63.30;;;;;;5038068;28;45565;-47
2021/09/04 14:40:27;;;;;;;4.15;3.75;;;28.90;63.00;;;;;;5022084;28;45260;-45
2021/09/04 14:42:53;;;;;;;9.23;3.70;;;28.70;62.90;;;;;;5039689;28;45325;-56
2021/09/04 14:45:18;;;;;;;4.55;3.05;;;28.50;63.20;;;;;;5037944;28;46148;-55
2021/09/04 14:47:44;;;;;;;3.72;3.38;;;28.40;63.10;;;;;;5038003;28;45382;-57
